sensor_id;sensor_type;location;lat;lon;timestamp;pressure;altitude;pressure_sealevel;temperature;humidity
11041;BME280;5573;49.592;8.662;2023-02-17T00:00:54;100650.22;;;11.50;67.98
11041;BME280;5573;49.592;8.662;2023-02-17T00:03:22;100642.91;;;11.38;68.03
11041;BME280;5573;49.592;8.662;2023-02-17T00:05:50;100646.78;;;11.56;67.77
11041;BME280;5573;49.592;8.662;2023-02-17T00:08:18;100641.63;;;11.55;67.63
11041;BME280;5573;49.592;8.662;2023-02-17T00:10:54;100643.72;;;11.38;69.59
11041;BME280;5573;49.592;8.662;2023-02-17T00:13:22;100648.25;;;11.50;69.18
11041;BME280;5573;49.592;8.662;2023-02-17T00:15:51;100643.41;;;11.44;69.20
11041;BME280;5573;49.592;8.662;2023-02-17T00:18:19;100636.88;;;11.52;69.35
11041;BME280;5573;49.592;8.662;2023-02-17T00:20:46;100634.38;;;11.43;71.10
11041;BME280;5573;49.592;8.662;2023-02-17T00:23:14;100637.41;;;11.38;71.84
11041;BME280;5573;49.592;8.662;2023-02-17T00:25:42;100608.09;;;11.26;71.71
11041;BME280;5573;49.592;8.662;2023-02-17T00:28:10;100634.28;;;11.39;71.96
11041;BME280;5573;49.592;8.662;2023-02-17T00:30:38;100637.41;;;11.38;71.77
11041;BME280;5573;49.592;8.662;2023-02-17T00:33:06;100644.53;;;11.39;72.60
11041;BME280;5573;49.592;8.662;2023-02-17T00:35:38;100643.41;;;11.44;73.17
11041;BME280;5573;49.592;8.662;2023-02-17T00:38:07;100645.75;;;11.42;73.89
11041;BME280;5573;49.592;8.662;2023-02-17T00:40:35;100636.19;;;11.35;73.90
11041;BME280;5573;49.592;8.662;2023-02-17T00:43:04;100645.25;;;11.36;73.86
11041;BME280;5573;49.592;8.662;2023-02-17T00:45:32;100647.13;;;11.32;74.31
11041;BME280;5573;49.592;8.662;2023-02-17T00:48:00;100645.44;;;11.47;74.12
11041;BME280;5573;49.592;8.662;2023-02-17T00:50:29;100643.31;;;11.36;74.44
11041;BME280;5573;49.592;8.662;2023-02-17T00:52:56;100634.00;;;11.22;76.12
11041;BME280;5573;49.592;8.662;2023-02-17T00:55:24;100636.25;;;11.39;75.03
11041;BME280;5573;49.592;8.662;2023-02-17T00:57:52;100638.34;;;11.46;75.03
11041;BME280;5573;49.592;8.662;2023-02-17T01:00:20;100636.97;;;11.36;76.40
11041;BME280;5573;49.592;8.662;2023-02-17T01:02:48;100641.28;;;11.33;77.14
11041;BME280;5573;49.592;8.662;2023-02-17T01:05:16;100646.19;;;11.44;76.50
11041;BME280;5573;49.592;8.662;2023-02-17T01:07:46;100628.47;;;11.22;76.70
11041;BME280;5573;49.592;8.662;2023-02-17T01:10:14;100636.19;;;11.35;78.20
11041;BME280;5573;49.592;8.662;2023-02-17T01:12:42;100639.53;;;11.25;78.84
11041;BME280;5573;49.592;8.662;2023-02-17T01:15:10;100636.75;;;11.22;78.58
11041;BME280;5573;49.592;8.662;2023-02-17T01:17:38;100634.53;;;11.31;78.48
11041;BME280;5573;49.592;8.662;2023-02-17T01:20:06;100621.91;;;11.30;78.40
11041;BME280;5573;49.592;8.662;2023-02-17T01:22:36;100633.69;;;11.27;78.83
11041;BME280;5573;49.592;8.662;2023-02-17T01:25:07;100629.31;;;11.26;80.16
11041;BME280;5573;49.592;8.662;2023-02-17T01:27:35;100628.34;;;11.37;79.40
11041;BME280;5573;49.592;8.662;2023-02-17T01:30:04;100625.78;;;11.25;79.68
11041;BME280;5573;49.592;8.662;2023-02-17T01:32:32;100627.38;;;11.26;80.17
11041;BME280;5573;49.592;8.662;2023-02-17T01:35:00;100628.72;;;11.36;78.48
11041;BME280;5573;49.592;8.662;2023-02-17T01:37:27;100637.06;;;11.39;78.59
11041;BME280;5573;49.592;8.662;2023-02-17T01:39:55;100629.16;;;11.38;78.29
11041;BME280;5573;49.592;8.662;2023-02-17T01:42:24;100634.22;;;11.36;78.87
11041;BME280;5573;49.592;8.662;2023-02-17T01:45:28;100625.66;;;11.18;79.99
11041;BME280;5573;49.592;8.662;2023-02-17T01:47:59;100627.00;;;11.28;79.41
11041;BME280;5573;49.592;8.662;2023-02-17T01:50:31;100628.97;;;11.27;79.87
11041;BME280;5573;49.592;8.662;2023-02-17T01:53:01;100599.66;;;11.15;79.85
11041;BME280;5573;49.592;8.662;2023-02-17T01:55:31;100623.53;;;11.31;78.90
11041;BME280;5573;49.592;8.662;2023-02-17T01:58:06;100615.97;;;11.28;79.61
11041;BME280;5573;49.592;8.662;2023-02-17T02:00:35;100610.84;;;11.26;80.28
11041;BME280;5573;49.592;8.662;2023-02-17T02:03:05;100609.00;;;11.11;80.38
11041;BME280;5573;49.592;8.662;2023-02-17T02:05:37;100610.25;;;11.13;80.54
11041;BME280;5573;49.592;8.662;2023-02-17T02:08:06;100611.47;;;11.16;80.42
11041;BME280;5573;49.592;8.662;2023-02-17T02:10:35;100605.94;;;11.16;80.58
11041;BME280;5573;49.592;8.662;2023-02-17T02:13:06;100616.53;;;11.14;80.78
11041;BME280;5573;49.592;8.662;2023-02-17T02:15:39;100603.47;;;11.11;81.65
11041;BME280;5573;49.592;8.662;2023-02-17T02:18:19;100611.38;;;11.12;81.09
11041;BME280;5573;49.592;8.662;2023-02-17T02:21:06;100608.19;;;11.10;81.53
11041;BME280;5573;49.592;8.662;2023-02-17T02:24:01;100610.03;;;11.03;82.30
11041;BME280;5573;49.592;8.662;2023-02-17T02:26:56;100608.31;;;10.94;82.39
11041;BME280;5573;49.592;8.662;2023-02-17T02:29:59;100614.53;;;10.91;84.23
11041;BME280;5573;49.592;8.662;2023-02-17T02:32:41;100605.81;;;10.86;84.99
11041;BME280;5573;49.592;8.662;2023-02-17T02:35:15;100604.97;;;10.85;85.54
11041;BME280;5573;49.592;8.662;2023-02-17T02:37:48;100597.22;;;10.91;85.16
11041;BME280;5573;49.592;8.662;2023-02-17T02:40:21;100584.22;;;10.68;86.96
11041;BME280;5573;49.592;8.662;2023-02-17T02:42:51;100580.88;;;10.78;87.21
11041;BME280;5573;49.592;8.662;2023-02-17T02:45:20;100576.59;;;10.81;87.18
11041;BME280;5573;49.592;8.662;2023-02-17T02:47:51;100569.06;;;10.78;88.32
11041;BME280;5573;49.592;8.662;2023-02-17T02:50:34;100570.97;;;10.74;88.64
11041;BME280;5573;49.592;8.662;2023-02-17T02:53:22;100568.66;;;10.76;88.09
11041;BME280;5573;49.592;8.662;2023-02-17T02:55:58;100570.41;;;10.88;88.04
11041;BME280;5573;49.592;8.662;2023-02-17T02:58:35;100562.13;;;10.84;89.15
11041;BME280;5573;49.592;8.662;2023-02-17T03:01:08;100498.53;;;10.47;89.31
11041;BME280;5573;49.592;8.662;2023-02-17T03:03:51;100554.16;;;10.79;90.95
11041;BME280;5573;49.592;8.662;2023-02-17T03:06:26;100553.44;;;10.82;90.98
11041;BME280;5573;49.592;8.662;2023-02-17T03:08:59;100548.00;;;10.86;91.83
11041;BME280;5573;49.592;8.662;2023-02-17T03:11:30;100541.47;;;10.74;92.09
11041;BME280;5573;49.592;8.662;2023-02-17T03:14:04;100540.03;;;10.81;92.89
11041;BME280;5573;49.592;8.662;2023-02-17T03:16:33;100548.00;;;10.86;92.29
11041;BME280;5573;49.592;8.662;2023-02-17T03:19:02;100549.03;;;10.77;92.39
11041;BME280;5573;49.592;8.662;2023-02-17T03:21:34;100550.38;;;10.87;91.89
11041;BME280;5573;49.592;8.662;2023-02-17T03:24:05;100552.88;;;10.96;91.26
11041;BME280;5573;49.592;8.662;2023-02-17T03:26:33;100546.16;;;10.93;91.81
11041;BME280;5573;49.592;8.662;2023-02-17T03:29:01;100487.94;;;10.49;91.54
11041;BME280;5573;49.592;8.662;2023-02-17T03:31:29;100548.91;;;10.93;91.76
11041;BME280;5573;49.592;8.662;2023-02-17T03:33:58;100540.66;;;10.93;91.66
11041;BME280;5573;49.592;8.662;2023-02-17T03:36:27;100537.28;;;10.81;93.88
11041;BME280;5573;49.592;8.662;2023-02-17T03:38:55;100532.63;;;10.85;93.75
11041;BME280;5573;49.592;8.662;2023-02-17T03:41:23;100535.31;;;10.81;94.59
11041;BME280;5573;49.592;8.662;2023-02-17T03:43:51;100534.63;;;10.88;94.59
11041;BME280;5573;49.592;8.662;2023-02-17T03:46:20;100532.56;;;11.04;93.94
11041;BME280;5573;49.592;8.662;2023-02-17T03:48:47;100533.19;;;10.94;95.07
11041;BME280;5573;49.592;8.662;2023-02-17T03:51:18;100537.00;;;10.86;96.91
11041;BME280;5573;49.592;8.662;2023-02-17T03:53:47;100536.31;;;10.92;96.60
11041;BME280;5573;49.592;8.662;2023-02-17T03:56:16;100529.63;;;10.93;97.18
11041;BME280;5573;49.592;8.662;2023-02-17T03:58:44;100543.63;;;10.85;98.57
11041;BME280;5573;49.592;8.662;2023-02-17T04:01:12;100540.88;;;10.85;99.69
11041;BME280;5573;49.592;8.662;2023-02-17T04:03:40;100550.06;;;10.92;99.65
11041;BME280;5573;49.592;8.662;2023-02-17T04:06:09;100548.00;;;10.86;100.00
11041;BME280;5573;49.592;8.662;2023-02-17T04:08:38;100542.59;;;10.93;100.00
11041;BME280;5573;49.592;8.662;2023-02-17T04:11:08;100553.31;;;10.98;100.00
11041;BME280;5573;49.592;8.662;2023-02-17T04:13:37;100551.78;;;10.77;100.00
11041;BME280;5573;49.592;8.662;2023-02-17T04:16:06;100554.16;;;10.79;100.00
11041;BME280;5573;49.592;8.662;2023-02-17T04:18:35;100560.50;;;10.83;100.00
11041;BME280;5573;49.592;8.662;2023-02-17T04:21:03;100550.75;;;10.66;100.00
11041;BME280;5573;49.592;8.662;2023-02-17T04:23:33;100552.66;;;10.62;100.00
11041;BME280;5573;49.592;8.662;2023-02-17T04:26:00;100554.31;;;10.67;100.00
11041;BME280;5573;49.592;8.662;2023-02-17T04:28:30;100555.97;;;10.71;100.00
11041;BME280;5573;49.592;8.662;2023-02-17T04:30:58;100557.09;;;10.67;100.00
11041;BME280;5573;49.592;8.662;2023-02-17T04:33:26;100562.72;;;10.54;100.00
11041;BME280;5573;49.592;8.662;2023-02-17T04:35:54;100562.00;;;10.57;100.00
11041;BME280;5573;49.592;8.662;2023-02-17T04:38:25;100564.81;;;10.61;100.00
11041;BME280;5573;49.592;8.662;2023-02-17T04:40:54;100565.97;;;10.60;100.00
11041;BME280;5573;49.592;8.662;2023-02-17T04:43:23;100568.00;;;10.63;100.00
11041;BME280;5573;49.592;8.662;2023-02-17T04:45:52;100565.41;;;10.51;100.00
11041;BME280;5573;49.592;8.662;2023-02-17T04:48:21;100563.97;;;10.57;100.00
11041;BME280;5573;49.592;8.662;2023-02-17T04:50:49;100549.41;;;10.56;100.00
11041;BME280;5573;49.592;8.662;2023-02-17T04:53:16;100565.53;;;10.58;100.00
11041;BME280;5573;49.592;8.662;2023-02-17T04:55:47;100559.47;;;10.49;100.00
11041;BME280;5573;49.592;8.662;2023-02-17T04:58:14;100560.25;;;10.49;100.00
11041;BME280;5573;49.592;8.662;2023-02-17T05:00:42;100543.84;;;10.53;100.00
11041;BME280;5573;49.592;8.662;2023-02-17T05:03:11;100568.72;;;10.60;100.00
11041;BME280;5573;49.592;8.662;2023-02-17T05:05:39;100564.97;;;10.49;100.00
11041;BME280;5573;49.592;8.662;2023-02-17T05:08:07;100557.50;;;10.49;100.00
11041;BME280;5573;49.592;8.662;2023-02-17T05:10:34;100571.25;;;10.49;100.00
11041;BME280;5573;49.592;8.662;2023-02-17T05:13:02;100564.38;;;10.59;100.00
11041;BME280;5573;49.592;8.662;2023-02-17T05:15:30;100559.97;;;10.54;100.00
11041;BME280;5573;49.592;8.662;2023-02-17T05:18:00;100566.50;;;10.46;100.00
11041;BME280;5573;49.592;8.662;2023-02-17T05:20:29;100565.41;;;10.51;100.00
11041;BME280;5573;49.592;8.662;2023-02-17T05:22:57;100573.22;;;10.49;100.00
11041;BME280;5573;49.592;8.662;2023-02-17T05:25:25;100560.22;;;10.46;100.00
11041;BME280;5573;49.592;8.662;2023-02-17T05:27:52;100565.84;;;10.53;100.00
11041;BME280;5573;49.592;8.662;2023-02-17T05:30:20;100565.06;;;10.52;100.00
11041;BME280;5573;49.592;8.662;2023-02-17T05:32:48;100569.09;;;10.39;100.00
11041;BME280;5573;49.592;8.662;2023-02-17T05:35:16;100560.41;;;10.56;100.00
11041;BME280;5573;49.592;8.662;2023-02-17T05:37:45;100565.84;;;10.53;100.00
11041;BME280;5573;49.592;8.662;2023-02-17T05:40:13;100562.28;;;10.33;100.00
11041;BME280;5573;49.592;8.662;2023-02-17T05:42:40;100567.78;;;10.33;100.00
11041;BME280;5573;49.592;8.662;2023-02-17T05:45:08;100568.28;;;10.38;100.00
11041;BME280;5573;49.592;8.662;2023-02-17T05:47:36;100574.97;;;10.37;100.00
11041;BME280;5573;49.592;8.662;2023-02-17T05:50:05;100570.25;;;10.38;100.00
11041;BME280;5573;49.592;8.662;2023-02-17T05:52:33;100574.22;;;10.41;100.00
11041;BME280;5573;49.592;8.662;2023-02-17T05:55:02;100575.31;;;10.36;100.00
11041;BME280;5573;49.592;8.662;2023-02-17T05:57:30;100568.28;;;10.38;100.00
11041;BME280;5573;49.592;8.662;2023-02-17T05:59:58;100573.28;;;10.33;100.00
11041;BME280;5573;49.592;8.662;2023-02-17T06:02:26;100576.53;;;10.38;100.00
11041;BME280;5573;49.592;8.662;2023-02-17T06:04:54;100582.41;;;10.37;100.00
11041;BME280;5573;49.592;8.662;2023-02-17T06:07:21;100585.53;;;10.35;100.00
11041;BME280;5573;49.592;8.662;2023-02-17T06:09:49;100587.13;;;10.36;100.00
11041;BME280;5573;49.592;8.662;2023-02-17T06:12:18;100590.59;;;10.33;100.00
11041;BME280;5573;49.592;8.662;2023-02-17T06:14:46;100581.63;;;10.36;100.00
11041;BME280;5573;49.592;8.662;2023-02-17T06:17:14;100592.34;;;10.26;100.00
11041;BME280;5573;49.592;8.662;2023-02-17T06:19:41;100592.78;;;10.28;100.00
11041;BME280;5573;49.592;8.662;2023-02-17T06:22:09;100594.41;;;10.29;100.00
11041;BME280;5573;49.592;8.662;2023-02-17T06:24:37;100584.84;;;10.23;100.00
11041;BME280;5573;49.592;8.662;2023-02-17T06:27:05;100600.25;;;10.27;100.00
11041;BME280;5573;49.592;8.662;2023-02-17T06:29:34;100599.38;;;10.23;100.00
11041;BME280;5573;49.592;8.662;2023-02-17T06:32:02;100589.38;;;10.15;100.00
11041;BME280;5573;49.592;8.662;2023-02-17T06:34:30;100588.28;;;10.20;100.00
11041;BME280;5573;49.592;8.662;2023-02-17T06:36:57;100580.13;;;10.23;100.00
11041;BME280;5573;49.592;8.662;2023-02-17T06:39:25;100591.56;;;10.25;100.00
11041;BME280;5573;49.592;8.662;2023-02-17T06:41:53;100586.63;;;10.15;100.00
11041;BME280;5573;49.592;8.662;2023-02-17T06:44:21;100581.25;;;10.03;100.00
11041;BME280;5573;49.592;8.662;2023-02-17T06:46:50;100585.19;;;10.21;100.00
11041;BME280;5573;49.592;8.662;2023-02-17T06:49:18;100577.03;;;10.25;100.00
11041;BME280;5573;49.592;8.662;2023-02-17T06:51:45;100579.97;;;10.16;100.00
11041;BME280;5573;49.592;8.662;2023-02-17T06:54:14;100587.47;;;10.35;100.00
11041;BME280;5573;49.592;8.662;2023-02-17T06:56:42;100590.25;;;10.19;100.00
11041;BME280;5573;49.592;8.662;2023-02-17T06:59:10;100592.22;;;10.18;100.00
11041;BME280;5573;49.592;8.662;2023-02-17T07:01:37;100599.66;;;10.18;100.00
11041;BME280;5573;49.592;8.662;2023-02-17T07:04:07;100597.16;;;10.29;100.00
11041;BME280;5573;49.592;8.662;2023-02-17T07:06:35;100593.09;;;10.23;100.00
11041;BME280;5573;49.592;8.662;2023-02-17T07:09:03;100599.81;;;10.25;100.00
11041;BME280;5573;49.592;8.662;2023-02-17T07:11:30;100602.25;;;10.11;100.00
11041;BME280;5573;49.592;8.662;2023-02-17T07:13:58;100613.38;;;9.98;100.00
11041;BME280;5573;49.592;8.662;2023-02-17T07:16:26;100628.97;;;9.94;100.00
11041;BME280;5573;49.592;8.662;2023-02-17T07:18:54;100619.75;;;10.03;100.00
11041;BME280;5573;49.592;8.662;2023-02-17T07:21:24;100623.91;;;9.96;100.00
11041;BME280;5573;49.592;8.662;2023-02-17T07:23:51;100633.91;;;10.05;100.00
11041;BME280;5573;49.592;8.662;2023-02-17T07:26:19;100635.53;;;10.06;100.00
11041;BME280;5573;49.592;8.662;2023-02-17T07:28:47;100634.22;;;10.00;100.00
11041;BME280;5573;49.592;8.662;2023-02-17T07:31:16;100643.50;;;10.11;100.00
11041;BME280;5573;49.592;8.662;2023-02-17T07:33:44;100645.78;;;10.09;100.00
11041;BME280;5573;49.592;8.662;2023-02-17T07:36:15;100639.25;;;9.97;100.00
11041;BME280;5573;49.592;8.662;2023-02-17T07:38:44;100653.41;;;10.15;100.00
11041;BME280;5573;49.592;8.662;2023-02-17T07:41:14;100656.16;;;10.15;100.00
11041;BME280;5573;49.592;8.662;2023-02-17T07:43:42;100659.19;;;10.10;100.00
11041;BME280;5573;49.592;8.662;2023-02-17T07:46:11;100666.44;;;10.18;100.00
11041;BME280;5573;49.592;8.662;2023-02-17T07:48:39;100666.56;;;10.06;100.00
11041;BME280;5573;49.592;8.662;2023-02-17T07:51:08;100660.28;;;10.06;100.00
11041;BME280;5573;49.592;8.662;2023-02-17T07:53:37;100654.13;;;10.12;100.00
11041;BME280;5573;49.592;8.662;2023-02-17T07:56:08;100653.44;;;10.00;100.00
11041;BME280;5573;49.592;8.662;2023-02-17T07:58:38;100648.16;;;10.26;100.00
11041;BME280;5573;49.592;8.662;2023-02-17T08:01:06;100638.13;;;10.18;100.00
11041;BME280;5573;49.592;8.662;2023-02-17T08:03:34;100640.00;;;10.14;100.00
11041;BME280;5573;49.592;8.662;2023-02-17T08:06:02;100642.69;;;10.10;100.00
11041;BME280;5573;49.592;8.662;2023-02-17T08:08:30;100641.28;;;10.16;100.00
11041;BME280;5573;49.592;8.662;2023-02-17T08:11:17;100645.09;;;10.12;100.00
11041;BME280;5573;49.592;8.662;2023-02-17T08:14:02;100641.72;;;10.18;100.00
11041;BME280;5573;49.592;8.662;2023-02-17T08:16:30;100644.38;;;10.15;100.00
11041;BME280;5573;49.592;8.662;2023-02-17T08:18:58;100636.13;;;9.99;100.00
11041;BME280;5573;49.592;8.662;2023-02-17T08:21:26;100636.97;;;10.00;100.00
11041;BME280;5573;49.592;8.662;2023-02-17T08:23:54;100655.66;;;10.10;100.00
11041;BME280;5573;49.592;8.662;2023-02-17T08:26:24;100648.78;;;10.20;100.00
11041;BME280;5573;49.592;8.662;2023-02-17T08:28:51;100649.22;;;10.22;100.00
11041;BME280;5573;49.592;8.662;2023-02-17T08:31:21;100654.72;;;10.22;100.00
11041;BME280;5573;49.592;8.662;2023-02-17T08:33:51;100670.44;;;10.21;100.00
11041;BME280;5573;49.592;8.662;2023-02-17T08:36:19;100653.41;;;10.31;100.00
11041;BME280;5573;49.592;8.662;2023-02-17T08:38:48;100654.91;;;10.29;100.00
11041;BME280;5573;49.592;8.662;2023-02-17T08:41:18;100629.19;;;10.21;100.00
11041;BME280;5573;49.592;8.662;2023-02-17T08:43:49;100657.56;;;10.25;100.00
11041;BME280;5573;49.592;8.662;2023-02-17T08:46:18;100657.47;;;10.37;100.00
11041;BME280;5573;49.592;8.662;2023-02-17T08:48:47;100650.00;;;10.22;100.00
11041;BME280;5573;49.592;8.662;2023-02-17T08:51:18;100651.09;;;10.17;100.00
11041;BME280;5573;49.592;8.662;2023-02-17T08:53:49;100644.66;;;10.45;100.00
11041;BME280;5573;49.592;8.662;2023-02-17T08:56:17;100635.47;;;10.37;100.00
11041;BME280;5573;49.592;8.662;2023-02-17T08:58:45;100641.25;;;10.52;100.00
11041;BME280;5573;49.592;8.662;2023-02-17T09:01:14;100634.41;;;10.26;100.00
11041;BME280;5573;49.592;8.662;2023-02-17T09:03:44;100600.72;;;10.29;100.00
11041;BME280;5573;49.592;8.662;2023-02-17T09:06:13;100634.97;;;10.51;100.00
11041;BME280;5573;49.592;8.662;2023-02-17T09:08:42;100644.44;;;10.34;100.00
11041;BME280;5573;49.592;8.662;2023-02-17T09:11:11;100642.44;;;10.51;100.00
11041;BME280;5573;49.592;8.662;2023-02-17T09:13:40;100577.66;;;10.18;100.00
11041;BME280;5573;49.592;8.662;2023-02-17T09:16:08;100639.38;;;10.56;100.00
11041;BME280;5573;49.592;8.662;2023-02-17T09:18:38;100640.84;;;10.50;100.00
11041;BME280;5573;49.592;8.662;2023-02-17T09:21:06;100625.28;;;10.22;100.00
11041;BME280;5573;49.592;8.662;2023-02-17T09:23:34;100637.06;;;10.38;100.00
11041;BME280;5573;49.592;8.662;2023-02-17T09:26:03;100644.88;;;10.36;100.00
11041;BME280;5573;49.592;8.662;2023-02-17T09:28:32;100651.88;;;10.18;100.00
11041;BME280;5573;49.592;8.662;2023-02-17T09:31:07;100651.28;;;10.25;100.00
11041;BME280;5573;49.592;8.662;2023-02-17T09:33:35;100655.78;;;10.33;100.00
11041;BME280;5573;49.592;8.662;2023-02-17T09:36:05;100622.53;;;10.22;100.00
11041;BME280;5573;49.592;8.662;2023-02-17T09:38:36;100654.56;;;10.14;100.00
11041;BME280;5573;49.592;8.662;2023-02-17T09:41:13;100652.25;;;10.16;100.00
11041;BME280;5573;49.592;8.662;2023-02-17T09:43:42;100654.38;;;10.23;100.00
11041;BME280;5573;49.592;8.662;2023-02-17T09:46:13;100648.53;;;10.25;100.00
11041;BME280;5573;49.592;8.662;2023-02-17T09:48:42;100636.72;;;10.24;100.00
11041;BME280;5573;49.592;8.662;2023-02-17T09:51:18;100643.72;;;10.22;100.00
11041;BME280;5573;49.592;8.662;2023-02-17T09:53:52;100627.41;;;10.29;100.00
11041;BME280;5573;49.592;8.662;2023-02-17T09:56:27;100629.81;;;10.30;100.00
11041;BME280;5573;49.592;8.662;2023-02-17T09:59:01;100651.34;;;10.28;100.00
11041;BME280;5573;49.592;8.662;2023-02-17T10:01:33;100653.28;;;10.28;100.00
11041;BME280;5573;49.592;8.662;2023-02-17T10:04:06;100639.75;;;10.54;100.00
11041;BME280;5573;49.592;8.662;2023-02-17T10:06:37;100648.50;;;10.41;100.00
11041;BME280;5573;49.592;8.662;2023-02-17T10:09:10;100665.34;;;10.39;100.00
11041;BME280;5573;49.592;8.662;2023-02-17T10:11:43;100669.19;;;10.34;100.00
11041;BME280;5573;49.592;8.662;2023-02-17T10:14:16;100663.41;;;10.40;100.00
11041;BME280;5573;49.592;8.662;2023-02-17T10:16:49;100662.47;;;10.51;100.00
11041;BME280;5573;49.592;8.662;2023-02-17T10:19:20;100664.34;;;10.47;100.00
11041;BME280;5573;49.592;8.662;2023-02-17T10:21:57;100667.31;;;10.58;100.00
11041;BME280;5573;49.592;8.662;2023-02-17T10:24:28;100664.31;;;10.83;100.00
11041;BME280;5573;49.592;8.662;2023-02-17T10:27:06;100674.09;;;10.80;100.00
11041;BME280;5573;49.592;8.662;2023-02-17T10:29:49;100687.56;;;10.85;100.00
11041;BME280;5573;49.592;8.662;2023-02-17T10:32:21;100680.13;;;10.86;100.00
11041;BME280;5573;49.592;8.662;2023-02-17T10:35:01;100691.16;;;10.70;100.00
11041;BME280;5573;49.592;8.662;2023-02-17T10:37:37;100679.44;;;10.73;100.00
11041;BME280;5573;49.592;8.662;2023-02-17T10:40:12;100680.97;;;10.70;100.00
11041;BME280;5573;49.592;8.662;2023-02-17T10:42:41;100674.22;;;10.87;100.00
11041;BME280;5573;49.592;8.662;2023-02-17T10:45:14;100661.19;;;10.65;100.00
11041;BME280;5573;49.592;8.662;2023-02-17T10:47:46;100672.78;;;10.74;100.00
11041;BME280;5573;49.592;8.662;2023-02-17T10:50:18;100670.31;;;10.88;100.00
11041;BME280;5573;49.592;8.662;2023-02-17T10:52:48;100673.09;;;10.88;100.00
11041;BME280;5573;49.592;8.662;2023-02-17T10:55:20;100671.69;;;10.98;100.00
11041;BME280;5573;49.592;8.662;2023-02-17T10:58:01;100662.13;;;10.92;100.00
11041;BME280;5573;49.592;8.662;2023-02-17T11:00:31;100663.56;;;11.05;100.00
11041;BME280;5573;49.592;8.662;2023-02-17T11:02:59;100669.94;;;11.09;100.00
11041;BME280;5573;49.592;8.662;2023-02-17T11:05:29;100672.25;;;10.88;100.00
11041;BME280;5573;49.592;8.662;2023-02-17T11:08:01;100671.06;;;11.05;100.00
11041;BME280;5573;49.592;8.662;2023-02-17T11:10:32;100651.53;;;10.94;100.00
11041;BME280;5573;49.592;8.662;2023-02-17T11:13:02;100657.69;;;11.07;100.00
11041;BME280;5573;49.592;8.662;2023-02-17T11:15:36;100656.91;;;11.06;100.00
11041;BME280;5573;49.592;8.662;2023-02-17T11:18:15;100644.25;;;11.25;100.00
11041;BME280;5573;49.592;8.662;2023-02-17T11:20:45;100650.09;;;11.19;100.00
11041;BME280;5573;49.592;8.662;2023-02-17T11:23:22;100658.66;;;11.37;100.00
11041;BME280;5573;49.592;8.662;2023-02-17T11:25:56;100645.13;;;11.29;100.00
11041;BME280;5573;49.592;8.662;2023-02-17T11:28:24;100665.13;;;11.26;100.00
11041;BME280;5573;49.592;8.662;2023-02-17T11:30:55;100650.41;;;11.37;100.00
11041;BME280;5573;49.592;8.662;2023-02-17T11:33:33;100652.72;;;11.35;100.00
11041;BME280;5573;49.592;8.662;2023-02-17T11:36:03;100642.38;;;11.29;100.00
11041;BME280;5573;49.592;8.662;2023-02-17T11:38:43;100636.72;;;11.45;100.00
11041;BME280;5573;49.592;8.662;2023-02-17T11:41:11;100644.28;;;11.48;100.00
11041;BME280;5573;49.592;8.662;2023-02-17T11:43:50;100638.66;;;11.41;100.00
11041;BME280;5573;49.592;8.662;2023-02-17T11:46:30;100639.28;;;11.53;100.00
11041;BME280;5573;49.592;8.662;2023-02-17T11:51:58;100640.13;;;11.57;100.00
11041;BME280;5573;49.592;8.662;2023-02-17T11:54:37;100634.66;;;11.61;100.00
11041;BME280;5573;49.592;8.662;2023-02-17T11:57:20;100628.91;;;11.47;100.00
11041;BME280;5573;49.592;8.662;2023-02-17T12:00:12;100634.78;;;11.68;100.00
11041;BME280;5573;49.592;8.662;2023-02-17T12:02:56;100639.00;;;11.85;100.00
11041;BME280;5573;49.592;8.662;2023-02-17T12:05:34;100634.63;;;11.84;100.00
11041;BME280;5573;49.592;8.662;2023-02-17T12:08:16;100628.88;;;11.93;100.00
11041;BME280;5573;49.592;8.662;2023-02-17T12:11:00;100635.50;;;11.88;100.00
11041;BME280;5573;49.592;8.662;2023-02-17T12:13:41;100631.88;;;11.84;100.00
11041;BME280;5573;49.592;8.662;2023-02-17T12:16:43;100630.59;;;12.01;100.00
11041;BME280;5573;49.592;8.662;2023-02-17T12:19:26;100641.25;;;12.03;100.00
11041;BME280;5573;49.592;8.662;2023-02-17T12:22:06;100627.16;;;11.85;100.00
11041;BME280;5573;49.592;8.662;2023-02-17T12:24:45;100631.69;;;11.96;100.00
11041;BME280;5573;49.592;8.662;2023-02-17T12:27:29;100641.69;;;12.05;100.00
11041;BME280;5573;49.592;8.662;2023-02-17T12:30:10;100638.75;;;12.20;100.00
11041;BME280;5573;49.592;8.662;2023-02-17T12:32:59;100642.94;;;12.11;100.00
11041;BME280;5573;49.592;8.662;2023-02-17T12:35:36;100634.03;;;12.21;100.00
11041;BME280;5573;49.592;8.662;2023-02-17T12:38:10;100639.97;;;12.23;100.00
11041;BME280;5573;49.592;8.662;2023-02-17T12:40:44;100630.94;;;12.26;100.00
11041;BME280;5573;49.592;8.662;2023-02-17T12:43:23;100634.63;;;12.37;100.00
11041;BME280;5573;49.592;8.662;2023-02-17T12:45:53;100625.00;;;12.24;100.00
11041;BME280;5573;49.592;8.662;2023-02-17T12:48:27;100620.28;;;12.25;100.00
11041;BME280;5573;49.592;8.662;2023-02-17T12:51:02;100625.34;;;12.19;100.00
11041;BME280;5573;49.592;8.662;2023-02-17T12:53:40;100632.53;;;12.27;100.00
11041;BME280;5573;49.592;8.662;2023-02-17T12:59:11;100630.06;;;12.49;100.00
11041;BME280;5573;49.592;8.662;2023-02-17T13:01:48;100618.19;;;12.45;100.00
11041;BME280;5573;49.592;8.662;2023-02-17T13:04:18;100617.06;;;12.49;100.00
11041;BME280;5573;49.592;8.662;2023-02-17T13:06:51;100611.34;;;12.65;100.00
11041;BME280;5573;49.592;8.662;2023-02-17T13:09:28;100603.06;;;12.65;100.00
11041;BME280;5573;49.592;8.662;2023-02-17T13:12:17;100603.03;;;12.61;100.00
11041;BME280;5573;49.592;8.662;2023-02-17T13:14:48;100603.75;;;12.58;100.00
11041;BME280;5573;49.592;8.662;2023-02-17T13:17:24;100605.22;;;12.49;100.00
11041;BME280;5573;49.592;8.662;2023-02-17T13:20:26;100592.41;;;12.64;100.00